sensor_id;sensor_type;location;lat;lon;timestamp;pressure;altitude;pressure_sealevel;temperature;humidity
8059;BME280;4072;42.668;23.396;2023-05-02T00:00:00;95426.06;;;11.85;100.00
8059;BME280;4072;42.668;23.396;2023-05-02T00:02:31;95428.22;;;12.00;100.00
8059;BME280;4072;42.668;23.396;2023-05-02T00:05:00;95435.47;;;12.03;100.00
8059;BME280;4072;42.668;23.396;2023-05-02T00:07:28;95429.50;;;12.17;100.00
8059;BME280;4072;42.668;23.396;2023-05-02T00:09:56;95426.34;;;12.18;100.00
8059;BME280;4072;42.668;23.396;2023-05-02T00:12:25;95419.81;;;12.07;100.00
8059;BME280;4072;42.668;23.396;2023-05-02T00:14:53;95426.06;;;12.25;100.00
8059;BME280;4072;42.668;23.396;2023-05-02T00:17:23;95428.41;;;12.05;100.00
8059;BME280;4072;42.668;23.396;2023-05-02T00:19:54;95404.38;;;11.76;100.00
8059;BME280;4072;42.668;23.396;2023-05-02T00:22:23;95436.69;;;12.02;100.00
8059;BME280;4072;42.668;23.396;2023-05-02T00:24:55;95436.69;;;12.02;100.00
8059;BME280;4072;42.668;23.396;2023-05-02T00:27:23;95429.00;;;12.00;100.00
8059;BME280;4072;42.668;23.396;2023-05-02T00:29:52;95428.94;;;11.82;100.00
8059;BME280;4072;42.668;23.396;2023-05-02T00:32:20;95441.38;;;11.70;100.00
8059;BME280;4072;42.668;23.396;2023-05-02T00:34:49;95434.44;;;11.69;100.00
8059;BME280;4072;42.668;23.396;2023-05-02T00:37:18;95422.66;;;11.63;100.00
8059;BME280;4072;42.668;23.396;2023-05-02T00:39:47;95439.31;;;11.83;100.00
8059;BME280;4072;42.668;23.396;2023-05-02T00:42:15;95441.28;;;11.83;100.00
8059;BME280;4072;42.668;23.396;2023-05-02T00:44:43;95455.72;;;11.58;100.00
8059;BME280;4072;42.668;23.396;2023-05-02T00:47:14;95440.22;;;11.80;100.00
8059;BME280;4072;42.668;23.396;2023-05-02T00:49:42;95456.94;;;11.88;100.00
8059;BME280;4072;42.668;23.396;2023-05-02T00:52:10;95456.72;;;12.04;100.00
8059;BME280;4072;42.668;23.396;2023-05-02T00:54:40;95449.41;;;12.23;100.00
8059;BME280;4072;42.668;23.396;2023-05-02T00:57:09;95449.88;;;12.30;100.00
8059;BME280;4072;42.668;23.396;2023-05-02T00:59:38;95459.72;;;12.46;100.00
8059;BME280;4072;42.668;23.396;2023-05-02T01:02:21;95441.81;;;12.57;100.00
8059;BME280;4072;42.668;23.396;2023-05-02T01:04:58;95449.53;;;12.77;100.00
8059;BME280;4072;42.668;23.396;2023-05-02T01:07:40;95441.38;;;12.86;100.00
8059;BME280;4072;42.668;23.396;2023-05-02T01:10:20;95436.56;;;12.72;100.00
8059;BME280;4072;42.668;23.396;2023-05-02T01:12:57;95433.81;;;12.63;100.00
8059;BME280;4072;42.668;23.396;2023-05-02T01:15:27;95442.59;;;12.94;100.00
8059;BME280;4072;42.668;23.396;2023-05-02T01:17:56;95445.31;;;12.94;100.00
8059;BME280;4072;42.668;23.396;2023-05-02T01:20:28;95444.00;;;12.98;100.00
8059;BME280;4072;42.668;23.396;2023-05-02T01:23:02;95434.16;;;13.10;100.00
8059;BME280;4072;42.668;23.396;2023-05-02T01:25:47;95431.16;;;12.90;100.00
8059;BME280;4072;42.668;23.396;2023-05-02T01:28:29;95438.34;;;12.66;100.00
8059;BME280;4072;42.668;23.396;2023-05-02T01:31:03;95429.28;;;12.51;100.00
8059;BME280;4072;42.668;23.396;2023-05-02T01:33:34;95440.59;;;12.49;100.00
8059;BME280;4072;42.668;23.396;2023-05-02T01:36:03;95445.53;;;12.42;100.00
8059;BME280;4072;42.668;23.396;2023-05-02T01:38:33;95409.94;;;12.31;100.00
8059;BME280;4072;42.668;23.396;2023-05-02T01:41:03;95441.94;;;12.45;100.00
8059;BME280;4072;42.668;23.396;2023-05-02T01:43:34;95419.91;;;12.34;100.00
8059;BME280;4072;42.668;23.396;2023-05-02T01:46:08;95456.06;;;12.31;100.00
8059;BME280;4072;42.668;23.396;2023-05-02T01:48:37;95452.13;;;12.23;100.00
8059;BME280;4072;42.668;23.396;2023-05-02T01:51:08;95454.91;;;12.41;100.00
8059;BME280;4072;42.668;23.396;2023-05-02T01:53:37;95457.13;;;12.33;100.00
8059;BME280;4072;42.668;23.396;2023-05-02T01:56:08;95455.13;;;12.16;100.00
8059;BME280;4072;42.668;23.396;2023-05-02T01:58:38;95456.63;;;12.17;100.00
8059;BME280;4072;42.668;23.396;2023-05-02T02:01:09;95453.41;;;12.00;100.00
8059;BME280;4072;42.668;23.396;2023-05-02T02:03:38;95451.81;;;12.21;100.00
8059;BME280;4072;42.668;23.396;2023-05-02T02:06:07;95455.84;;;12.16;100.00
8059;BME280;4072;42.668;23.396;2023-05-02T02:08:35;95450.84;;;12.06;100.00
8059;BME280;4072;42.668;23.396;2023-05-02T02:11:08;95373.81;;;11.54;100.00
8059;BME280;4072;42.668;23.396;2023-05-02T02:13:43;95437.56;;;11.99;100.00
8059;BME280;4072;42.668;23.396;2023-05-02T02:16:20;95440.63;;;12.10;100.00
8059;BME280;4072;42.668;23.396;2023-05-02T02:18:52;95441.84;;;12.09;100.00
8059;BME280;4072;42.668;23.396;2023-05-02T02:21:22;95420.53;;;11.98;100.00
8059;BME280;4072;42.668;23.396;2023-05-02T02:23:54;95443.06;;;12.26;100.00
8059;BME280;4072;42.668;23.396;2023-05-02T02:26:24;95440.66;;;12.19;100.00
8059;BME280;4072;42.668;23.396;2023-05-02T02:28:55;95446.66;;;12.14;100.00
8059;BME280;4072;42.668;23.396;2023-05-02T02:31:29;95436.69;;;12.02;100.00
8059;BME280;4072;42.668;23.396;2023-05-02T02:33:58;95440.34;;;11.77;100.00
8059;BME280;4072;42.668;23.396;2023-05-02T02:36:32;95434.91;;;11.77;100.00
8059;BME280;4072;42.668;23.396;2023-05-02T02:39:11;95450.28;;;11.80;100.00
8059;BME280;4072;42.668;23.396;2023-05-02T02:41:44;95438.94;;;11.72;100.00
8059;BME280;4072;42.668;23.396;2023-05-02T02:44:24;95439.25;;;11.65;100.00
8059;BME280;4072;42.668;23.396;2023-05-02T02:47:01;95444.91;;;11.58;100.00
8059;BME280;4072;42.668;23.396;2023-05-02T02:49:43;95445.16;;;11.51;100.00
8059;BME280;4072;42.668;23.396;2023-05-02T02:52:20;95445.59;;;11.50;100.00
8059;BME280;4072;42.668;23.396;2023-05-02T02:54:58;95441.78;;;11.47;100.00
8059;BME280;4072;42.668;23.396;2023-05-02T02:57:32;95444.47;;;11.38;100.00
8059;BME280;4072;42.668;23.396;2023-05-02T03:00:09;95433.25;;;11.27;100.00
8059;BME280;4072;42.668;23.396;2023-05-02T03:02:41;95453.09;;;11.24;100.00
8059;BME280;4072;42.668;23.396;2023-05-02T03:05:10;95451.44;;;11.27;100.00
8059;BME280;4072;42.668;23.396;2023-05-02T03:07:39;95453.97;;;11.21;100.00
8059;BME280;4072;42.668;23.396;2023-05-02T03:10:08;95384.94;;;10.61;100.00
8059;BME280;4072;42.668;23.396;2023-05-02T03:12:37;95460.50;;;11.11;100.00
8059;BME280;4072;42.668;23.396;2023-05-02T03:15:18;95458.88;;;11.14;100.00
8059;BME280;4072;42.668;23.396;2023-05-02T03:17:51;95462.97;;;11.18;100.00
8059;BME280;4072;42.668;23.396;2023-05-02T03:20:20;95466.19;;;11.26;100.00
8059;BME280;4072;42.668;23.396;2023-05-02T03:22:49;95477.75;;;11.26;100.00
8059;BME280;4072;42.668;23.396;2023-05-02T03:25:18;95477.91;;;11.23;100.00
8059;BME280;4072;42.668;23.396;2023-05-02T03:27:46;95473.13;;;11.05;100.00
8059;BME280;4072;42.668;23.396;2023-05-02T03:30:15;95491.88;;;11.21;100.00
8059;BME280;4072;42.668;23.396;2023-05-02T03:32:43;95487.81;;;11.38;100.00
8059;BME280;4072;42.668;23.396;2023-05-02T03:35:13;95497.31;;;11.64;100.00
8059;BME280;4072;42.668;23.396;2023-05-02T03:37:41;95495.47;;;11.83;100.00
8059;BME280;4072;42.668;23.396;2023-05-02T03:40:10;95486.81;;;11.97;100.00
8059;BME280;4072;42.668;23.396;2023-05-02T03:42:41;95486.56;;;12.04;100.00
8059;BME280;4072;42.668;23.396;2023-05-02T03:45:10;95440.81;;;11.84;100.00
8059;BME280;4072;42.668;23.396;2023-05-02T03:47:38;95431.13;;;11.74;100.00
8059;BME280;4072;42.668;23.396;2023-05-02T03:50:07;95493.53;;;11.83;100.00
8059;BME280;4072;42.668;23.396;2023-05-02T03:52:37;95487.09;;;11.68;100.00
8059;BME280;4072;42.668;23.396;2023-05-02T03:55:06;95481.28;;;11.57;100.00
8059;BME280;4072;42.668;23.396;2023-05-02T03:57:35;95491.66;;;11.71;100.00
8059;BME280;4072;42.668;23.396;2023-05-02T04:00:03;95497.75;;;11.84;100.00
8059;BME280;4072;42.668;23.396;2023-05-02T04:02:32;95492.34;;;11.84;100.00
8059;BME280;4072;42.668;23.396;2023-05-02T04:05:00;95494.44;;;11.80;100.00
8059;BME280;4072;42.668;23.396;2023-05-02T04:07:30;95482.56;;;11.87;100.00
8059;BME280;4072;42.668;23.396;2023-05-02T04:10:00;95483.06;;;11.95;100.00
8059;BME280;4072;42.668;23.396;2023-05-02T04:12:29;95492.31;;;12.15;100.00
8059;BME280;4072;42.668;23.396;2023-05-02T04:14:57;95492.47;;;12.12;100.00
8059;BME280;4072;42.668;23.396;2023-05-02T04:17:26;95501.66;;;12.14;100.00
8059;BME280;4072;42.668;23.396;2023-05-02T04:19:54;95490.38;;;12.16;100.00
8059;BME280;4072;42.668;23.396;2023-05-02T04:22:24;95490.63;;;12.39;100.00
8059;BME280;4072;42.668;23.396;2023-05-02T04:24:52;95494.69;;;12.44;100.00
8059;BME280;4072;42.668;23.396;2023-05-02T04:27:23;95498.88;;;12.36;100.00
8059;BME280;4072;42.668;23.396;2023-05-02T04:29:52;95490.88;;;12.32;100.00
8059;BME280;4072;42.668;23.396;2023-05-02T04:32:21;95491.28;;;12.22;100.00
8059;BME280;4072;42.668;23.396;2023-05-02T04:34:49;95486.69;;;12.01;100.00
8059;BME280;4072;42.668;23.396;2023-05-02T04:37:20;95497.53;;;12.01;100.00
8059;BME280;4072;42.668;23.396;2023-05-02T04:39:48;95506.47;;;12.10;100.00
8059;BME280;4072;42.668;23.396;2023-05-02T04:42:16;95500.91;;;12.14;100.00
8059;BME280;4072;42.668;23.396;2023-05-02T04:44:47;95503.25;;;12.03;100.00
8059;BME280;4072;42.668;23.396;2023-05-02T04:47:16;95511.00;;;12.13;100.00
8059;BME280;4072;42.668;23.396;2023-05-02T04:49:44;95493.81;;;12.16;100.00
8059;BME280;4072;42.668;23.396;2023-05-02T04:52:12;95456.81;;;11.92;100.00
8059;BME280;4072;42.668;23.396;2023-05-02T04:54:40;95511.56;;;12.39;100.00
8059;BME280;4072;42.668;23.396;2023-05-02T04:57:08;95498.06;;;12.66;100.00
8059;BME280;4072;42.668;23.396;2023-05-02T04:59:36;95503.50;;;12.66;100.00
8059;BME280;4072;42.668;23.396;2023-05-02T05:02:06;95507.16;;;12.72;100.00
8059;BME280;4072;42.668;23.396;2023-05-02T05:04:38;95493.63;;;12.99;100.00
8059;BME280;4072;42.668;23.396;2023-05-02T05:07:09;95502.84;;;13.10;100.00
8059;BME280;4072;42.668;23.396;2023-05-02T05:09:37;95516.28;;;13.41;100.00
8059;BME280;4072;42.668;23.396;2023-05-02T05:12:05;95506.41;;;13.79;100.00
8059;BME280;4072;42.668;23.396;2023-05-02T05:14:33;95497.53;;;13.70;100.00
8059;BME280;4072;42.668;23.396;2023-05-02T05:17:01;95497.66;;;13.84;100.00
8059;BME280;4072;42.668;23.396;2023-05-02T05:19:33;95505.16;;;13.98;100.00
8059;BME280;4072;42.668;23.396;2023-05-02T05:22:01;95508.38;;;14.38;100.00
8059;BME280;4072;42.668;23.396;2023-05-02T05:24:29;95504.63;;;14.36;100.00
8059;BME280;4072;42.668;23.396;2023-05-02T05:26:58;95508.97;;;14.75;100.00
8059;BME280;4072;42.668;23.396;2023-05-02T05:29:26;95505.34;;;14.69;100.00
8059;BME280;4072;42.668;23.396;2023-05-02T05:31:55;95512.16;;;14.41;100.00
8059;BME280;4072;42.668;23.396;2023-05-02T05:34:23;95503.69;;;14.39;100.00
8059;BME280;4072;42.668;23.396;2023-05-02T05:36:54;95504.88;;;14.47;100.00
8059;BME280;4072;42.668;23.396;2023-05-02T05:39:22;95516.41;;;14.33;100.00
8059;BME280;4072;42.668;23.396;2023-05-02T05:41:51;95508.47;;;14.53;98.99
8059;BME280;4072;42.668;23.396;2023-05-02T05:44:20;95509.53;;;14.79;95.36
8059;BME280;4072;42.668;23.396;2023-05-02T05:46:48;95513.16;;;14.85;94.38
8059;BME280;4072;42.668;23.396;2023-05-02T05:49:16;95512.91;;;15.21;91.92
8059;BME280;4072;42.668;23.396;2023-05-02T05:51:45;95517.06;;;15.31;90.32
8059;BME280;4072;42.668;23.396;2023-05-02T05:54:15;95515.75;;;15.27;88.56
8059;BME280;4072;42.668;23.396;2023-05-02T05:56:44;95519.75;;;15.40;85.98
8059;BME280;4072;42.668;23.396;2023-05-02T05:59:13;95515.25;;;15.37;84.96
8059;BME280;4072;42.668;23.396;2023-05-02T06:01:41;95522.81;;;15.57;85.91
8059;BME280;4072;42.668;23.396;2023-05-02T06:04:10;95525.78;;;15.44;84.39
8059;BME280;4072;42.668;23.396;2023-05-02T06:06:40;95527.88;;;15.49;80.16
8059;BME280;4072;42.668;23.396;2023-05-02T06:09:09;95513.81;;;15.65;79.56
8059;BME280;4072;42.668;23.396;2023-05-02T06:11:39;95514.56;;;15.80;78.00
8059;BME280;4072;42.668;23.396;2023-05-02T06:14:07;95543.00;;;16.03;76.12
8059;BME280;4072;42.668;23.396;2023-05-02T06:16:35;95515.31;;;15.66;75.25
8059;BME280;4072;42.668;23.396;2023-05-02T06:19:04;95518.84;;;15.72;74.32
8059;BME280;4072;42.668;23.396;2023-05-02T06:21:32;95522.09;;;16.29;74.73
8059;BME280;4072;42.668;23.396;2023-05-02T06:24:03;95524.47;;;16.70;69.78
8059;BME280;4072;42.668;23.396;2023-05-02T06:26:31;95524.22;;;16.68;67.47
8059;BME280;4072;42.668;23.396;2023-05-02T06:29:01;95518.91;;;16.45;68.66
8059;BME280;4072;42.668;23.396;2023-05-02T06:31:29;95515.13;;;16.42;68.06
8059;BME280;4072;42.668;23.396;2023-05-02T06:33:57;95504.94;;;16.28;68.29
8059;BME280;4072;42.668;23.396;2023-05-02T06:36:26;95516.91;;;16.80;66.40
8059;BME280;4072;42.668;23.396;2023-05-02T06:38:54;95517.09;;;17.11;61.49
8059;BME280;4072;42.668;23.396;2023-05-02T06:41:22;95522.09;;;17.12;64.26
8059;BME280;4072;42.668;23.396;2023-05-02T06:43:50;95522.22;;;17.03;63.94
8059;BME280;4072;42.668;23.396;2023-05-02T06:46:20;95519.50;;;17.23;61.30
8059;BME280;4072;42.668;23.396;2023-05-02T06:48:49;95479.31;;;16.55;60.09
8059;BME280;4072;42.668;23.396;2023-05-02T06:51:17;95516.41;;;16.96;62.19
8059;BME280;4072;42.668;23.396;2023-05-02T06:53:47;95511.84;;;17.07;61.05
8059;BME280;4072;42.668;23.396;2023-05-02T06:56:15;95496.25;;;16.93;60.25
8059;BME280;4072;42.668;23.396;2023-05-02T06:58:43;95473.28;;;16.85;59.90
8059;BME280;4072;42.668;23.396;2023-05-02T07:01:11;95411.91;;;16.46;59.35
8059;BME280;4072;42.668;23.396;2023-05-02T07:03:41;95508.84;;;17.45;59.71
8059;BME280;4072;42.668;23.396;2023-05-02T07:06:09;95507.63;;;17.47;58.23
8059;BME280;4072;42.668;23.396;2023-05-02T07:08:37;95501.88;;;17.24;58.63
8059;BME280;4072;42.668;23.396;2023-05-02T07:11:06;95494.34;;;17.19;57.49
8059;BME280;4072;42.668;23.396;2023-05-02T07:13:35;95504.66;;;17.50;58.68
8059;BME280;4072;42.668;23.396;2023-05-02T07:16:04;95511.41;;;17.75;55.98
8059;BME280;4072;42.668;23.396;2023-05-02T07:18:55;95508.28;;;17.41;56.89
8059;BME280;4072;42.668;23.396;2023-05-02T07:21:23;95520.56;;;17.92;56.30
8059;BME280;4072;42.668;23.396;2023-05-02T07:23:52;95512.69;;;18.05;54.00
8059;BME280;4072;42.668;23.396;2023-05-02T07:26:23;95512.25;;;17.61;53.89
8059;BME280;4072;42.668;23.396;2023-05-02T07:28:53;95505.19;;;18.00;54.03
8059;BME280;4072;42.668;23.396;2023-05-02T07:31:22;95504.94;;;17.52;55.05
8059;BME280;4072;42.668;23.396;2023-05-02T07:33:50;95520.56;;;17.92;54.52
8059;BME280;4072;42.668;23.396;2023-05-02T07:36:20;95514.69;;;17.79;53.49
8059;BME280;4072;42.668;23.396;2023-05-02T07:38:48;95503.22;;;17.55;54.00
8059;BME280;4072;42.668;23.396;2023-05-02T07:41:16;95504.09;;;18.17;53.05
8059;BME280;4072;42.668;23.396;2023-05-02T07:43:45;95486.38;;;17.82;52.98
8059;BME280;4072;42.668;23.396;2023-05-02T07:46:13;95515.56;;;17.90;53.38
8059;BME280;4072;42.668;23.396;2023-05-02T07:48:41;95521.50;;;17.89;53.65
8059;BME280;4072;42.668;23.396;2023-05-02T07:51:10;95519.22;;;18.13;52.51
8059;BME280;4072;42.668;23.396;2023-05-02T07:53:40;95518.34;;;18.27;51.73
8059;BME280;4072;42.668;23.396;2023-05-02T07:56:08;95527.28;;;18.22;52.43
8059;BME280;4072;42.668;23.396;2023-05-02T07:58:38;95530.94;;;18.13;52.87
8059;BME280;4072;42.668;23.396;2023-05-02T08:01:06;95517.72;;;18.12;52.69
8059;BME280;4072;42.668;23.396;2023-05-02T08:03:35;95462.06;;;17.64;52.39
8059;BME280;4072;42.668;23.396;2023-05-02T08:06:03;95513.44;;;17.80;53.05
8059;BME280;4072;42.668;23.396;2023-05-02T08:08:33;95504.81;;;17.87;52.53
8059;BME280;4072;42.668;23.396;2023-05-02T08:11:03;95513.13;;;17.98;52.84
8059;BME280;4072;42.668;23.396;2023-05-02T08:13:31;95519.34;;;17.73;51.70
8059;BME280;4072;42.668;23.396;2023-05-02T08:16:00;95527.72;;;17.89;51.87
8059;BME280;4072;42.668;23.396;2023-05-02T08:18:29;95513.03;;;17.87;52.47
8059;BME280;4072;42.668;23.396;2023-05-02T08:20:59;95508.09;;;17.91;52.69
8059;BME280;4072;42.668;23.396;2023-05-02T08:23:27;95508.31;;;17.87;51.54
8059;BME280;4072;42.668;23.396;2023-05-02T08:25:55;95515.28;;;18.14;51.98
8059;BME280;4072;42.668;23.396;2023-05-02T08:28:25;95516.94;;;18.06;51.04
8059;BME280;4072;42.668;23.396;2023-05-02T08:30:54;95505.72;;;18.04;50.85
8059;BME280;4072;42.668;23.396;2023-05-02T08:33:22;95513.97;;;18.09;51.58
8059;BME280;4072;42.668;23.396;2023-05-02T08:35:50;95512.03;;;18.77;48.78
8059;BME280;4072;42.668;23.396;2023-05-02T08:38:18;95520.91;;;18.98;49.25
8059;BME280;4072;42.668;23.396;2023-05-02T08:40:47;95520.59;;;18.90;48.79
8059;BME280;4072;42.668;23.396;2023-05-02T08:43:15;95521.38;;;19.38;47.14
8059;BME280;4072;42.668;23.396;2023-05-02T08:45:45;95508.72;;;19.52;47.21
8059;BME280;4072;42.668;23.396;2023-05-02T08:48:15;95482.72;;;19.42;46.11
8059;BME280;4072;42.668;23.396;2023-05-02T08:50:44;95519.69;;;19.52;47.62
8059;BME280;4072;42.668;23.396;2023-05-02T08:53:16;95522.50;;;19.79;46.09
8059;BME280;4072;42.668;23.396;2023-05-02T08:55:45;95511.56;;;19.90;45.84
8059;BME280;4072;42.668;23.396;2023-05-02T08:58:15;95519.78;;;19.85;45.70
8059;BME280;4072;42.668;23.396;2023-05-02T09:00:46;95517.00;;;19.74;44.70
8059;BME280;4072;42.668;23.396;2023-05-02T09:03:22;95508.25;;;19.70;45.34
8059;BME280;4072;42.668;23.396;2023-05-02T09:06:06;95513.13;;;20.13;44.57
8059;BME280;4072;42.668;23.396;2023-05-02T09:08:35;95498.41;;;20.22;44.15
8059;BME280;4072;42.668;23.396;2023-05-02T09:11:05;95506.88;;;20.24;43.49
8059;BME280;4072;42.668;23.396;2023-05-02T09:13:37;95504.88;;;20.52;41.99
8059;BME280;4072;42.668;23.396;2023-05-02T09:16:11;95507.28;;;21.16;40.35
8059;BME280;4072;42.668;23.396;2023-05-02T09:18:41;95490.28;;;21.23;39.91
8059;BME280;4072;42.668;23.396;2023-05-02T09:21:11;95499.53;;;21.20;39.06
8059;BME280;4072;42.668;23.396;2023-05-02T09:23:40;95465.13;;;20.81;39.12
8059;BME280;4072;42.668;23.396;2023-05-02T09:26:13;95497.72;;;21.39;38.99
8059;BME280;4072;42.668;23.396;2023-05-02T09:28:43;95500.25;;;21.26;38.56
8059;BME280;4072;42.668;23.396;2023-05-02T09:31:16;95504.34;;;21.03;39.44
8059;BME280;4072;42.668;23.396;2023-05-02T09:34:08;95485.78;;;21.20;39.82
8059;BME280;4072;42.668;23.396;2023-05-02T09:36:40;95491.25;;;21.31;37.71
8059;BME280;4072;42.668;23.396;2023-05-02T09:39:10;95488.94;;;21.46;37.84
8059;BME280;4072;42.668;23.396;2023-05-02T09:41:39;95476.41;;;21.51;38.53
8059;BME280;4072;42.668;23.396;2023-05-02T09:44:09;95489.84;;;20.97;39.40
8059;BME280;4072;42.668;23.396;2023-05-02T09:46:44;95480.09;;;21.02;38.30
8059;BME280;4072;42.668;23.396;2023-05-02T09:49:13;95483.34;;;21.00;38.12
8059;BME280;4072;42.668;23.396;2023-05-02T09:51:45;95477.16;;;20.28;39.18
8059;BME280;4072;42.668;23.396;2023-05-02T09:54:22;95476.88;;;20.70;38.48
8059;BME280;4072;42.668;23.396;2023-05-02T09:57:02;95476.91;;;20.54;39.81
8059;BME280;4072;42.668;23.396;2023-05-02T09:59:33;95462.94;;;20.24;38.78
8059;BME280;4072;42.668;23.396;2023-05-02T10:02:03;95438.16;;;19.85;38.71
8059;BME280;4072;42.668;23.396;2023-05-02T10:04:33;95412.97;;;19.98;39.01
8059;BME280;4072;42.668;23.396;2023-05-02T10:07:04;95468.69;;;20.15;39.00
8059;BME280;4072;42.668;23.396;2023-05-02T10:09:34;95455.41;;;20.08;39.20
8059;BME280;4072;42.668;23.396;2023-05-02T10:12:03;95466.41;;;19.97;39.75
8059;BME280;4072;42.668;23.396;2023-05-02T10:14:38;95459.44;;;20.40;39.53
8059;BME280;4072;42.668;23.396;2023-05-02T10:17:12;95466.91;;;20.45;38.25
8059;BME280;4072;42.668;23.396;2023-05-02T10:19:44;95449.94;;;20.30;39.39
8059;BME280;4072;42.668;23.396;2023-05-02T10:22:18;95458.16;;;20.47;39.17
8059;BME280;4072;42.668;23.396;2023-05-02T10:24:48;95453.13;;;20.67;39.06
8059;BME280;4072;42.668;23.396;2023-05-02T10:27:18;95454.31;;;21.10;38.21
8059;BME280;4072;42.668;23.396;2023-05-02T10:29:46;95425.34;;;21.50;36.93
8059;BME280;4072;42.668;23.396;2023-05-02T10:32:17;95434.78;;;21.65;37.00
8059;BME280;4072;42.668;23.396;2023-05-02T10:34:46;95339.41;;;21.27;36.75
8059;BME280;4072;42.668;23.396;2023-05-02T10:37:16;95434.00;;;21.70;36.58
8059;BME280;4072;42.668;23.396;2023-05-02T10:39:46;95434.97;;;21.32;37.12
8059;BME280;4072;42.668;23.396;2023-05-02T10:42:14;95420.53;;;21.61;36.94
8059;BME280;4072;42.668;23.396;2023-05-02T10:44:44;95430.06;;;21.60;36.84
8059;BME280;4072;42.668;23.396;2023-05-02T10:47:20;95426.31;;;21.58;36.45
8059;BME280;4072;42.668;23.396;2023-05-02T10:49:50;95431.28;;;21.13;36.43
8059;BME280;4072;42.668;23.396;2023-05-02T10:52:25;95426.16;;;21.39;37.31
8059;BME280;4072;42.668;23.396;2023-05-02T10:55:19;95432.34;;;20.94;37.66
8059;BME280;4072;42.668;23.396;2023-05-02T10:58:18;95420.09;;;20.95;37.28
8059;BME280;4072;42.668;23.396;2023-05-02T11:00:48;95421.31;;;20.99;37.49
8059;BME280;4072;42.668;23.396;2023-05-02T11:03:55;95425.56;;;21.57;36.83
8059;BME280;4072;42.668;23.396;2023-05-02T11:06:25;95406.59;;;21.48;37.07
8059;BME280;4072;42.668;23.396;2023-05-02T11:09:32;95398.31;;;21.48;37.20
8059;BME280;4072;42.668;23.396;2023-05-02T11:12:01;95415.28;;;21.63;37.13
8059;BME280;4072;42.668;23.396;2023-05-02T11:14:46;95405.63;;;21.40;37.23
8059;BME280;4072;42.668;23.396;2023-05-02T11:17:16;95342.09;;;20.98;36.86
8059;BME280;4072;42.668;23.396;2023-05-02T11:23:19;95404.16;;;21.39;37.39
8059;BME280;4072;42.668;23.396;2023-05-02T11:25:54;95404.34;;;21.47;37.05
8059;BME280;4072;42.668;23.396;2023-05-02T11:28:39;95406.41;;;21.81;36.87
8059;BME280;4072;42.668;23.396;2023-05-02T11:31:09;95409.63;;;22.20;36.26
8059;BME280;4072;42.668;23.396;2023-05-02T11:33:58;95408.97;;;22.09;36.83
8059;BME280;4072;42.668;23.396;2023-05-02T11:36:27;95400.63;;;22.14;36.40
8059;BME280;4072;42.668;23.396;2023-05-02T11:38:58;95418.66;;;21.80;36.97
8059;BME280;4072;42.668;23.396;2023-05-02T11:41:37;95319.91;;;21.25;36.05
8059;BME280;4072;42.668;23.396;2023-05-02T11:44:06;95394.84;;;21.88;36.71
8059;BME280;4072;42.668;23.396;2023-05-02T11:46:35;95397.44;;;21.75;36.23
8059;BME280;4072;42.668;23.396;2023-05-02T11:49:04;95392.44;;;21.74;37.38
8059;BME280;4072;42.668;23.396;2023-05-02T11:51:36;95382.81;;;21.91;37.73
8059;BME280;4072;42.668;23.396;2023-05-02T11:54:06;95389.81;;;21.92;36.90
8059;BME280;4072;42.668;23.396;2023-05-02T11:56:34;95375.94;;;21.68;37.48
8059;BME280;4072;42.668;23.396;2023-05-02T11:59:03;95375.13;;;22.08;36.33
8059;BME280;4072;42.668;23.396;2023-05-02T12:01:32;95382.97;;;22.28;36.52
8059;BME280;4072;42.668;23.396;2023-05-02T12:04:02;95368.28;;;22.20;35.93
8059;BME280;4072;42.668;23.396;2023-05-02T12:06:32;95365.97;;;22.24;36.09
8059;BME280;4072;42.668;23.396;2023-05-02T12:09:13;95364.38;;;22.34;36.20
8059;BME280;4072;42.668;23.396;2023-05-02T12:11:42;95364.47;;;22.53;35.63
8059;BME280;4072;42.668;23.396;2023-05-02T12:14:12;95365.31;;;22.42;34.95
8059;BME280;4072;42.668;23.396;2023-05-02T12:16:40;95336.75;;;21.86;35.09
8059;BME280;4072;42.668;23.396;2023-05-02T12:19:11;95361.78;;;21.88;35.15
8059;BME280;4072;42.668;23.396;2023-05-02T12:21:42;95345.47;;;21.55;35.77
8059;BME280;4072;42.668;23.396;2023-05-02T12:24:13;95360.28;;;21.87;34.84
8059;BME280;4072;42.668;23.396;2023-05-02T12:26:42;95362.34;;;21.81;34.71
8059;BME280;4072;42.668;23.396;2023-05-02T12:29:12;95348.69;;;21.65;35.29
8059;BME280;4072;42.668;23.396;2023-05-02T12:31:50;95344.00;;;21.54;34.24
8059;BME280;4072;42.668;23.396;2023-05-02T12:34:31;95342.47;;;21.59;35.17
8059;BME280;4072;42.668;23.396;2023-05-02T12:37:02;95270.28;;;21.01;34.54
8059;BME280;4072;42.668;23.396;2023-05-02T12:39:35;95324.41;;;21.63;34.54
8059;BME280;4072;42.668;23.396;2023-05-02T12:42:10;95318.91;;;21.63;34.24
8059;BME280;4072;42.668;23.396;2023-05-02T12:44:40;95324.25;;;21.85;34.16
8059;BME280;4072;42.668;23.396;2023-05-02T12:47:10;95246.19;;;21.18;34.25
8059;BME280;4072;42.668;23.396;2023-05-02T12:49:49;95320.75;;;22.38;33.38
8059;BME280;4072;42.668;23.396;2023-05-02T12:52:19;95306.72;;;22.60;33.28
8059;BME280;4072;42.668;23.396;2023-05-02T12:54:51;95320.06;;;22.56;33.56
8059;BME280;4072;42.668;23.396;2023-05-02T12:57:21;95331.31;;;22.34;33.41
8059;BME280;4072;42.668;23.396;2023-05-02T12:59:51;95325.63;;;22.27;33.25
8059;BME280;4072;42.668;23.396;2023-05-02T13:02:20;95316.69;;;22.15;33.31
8059;BME280;4072;42.668;23.396;2023-05-02T13:04:49;95322.63;;;21.66;34.14
8059;BME280;4072;42.668;23.396;2023-05-02T13:07:18;95313.91;;;21.62;34.58
8059;BME280;4072;42.668;23.396;2023-05-02T13:09:46;95317.53;;;22.10;33.49
8059;BME280;4072;42.668;23.396;2023-05-02T13:12:17;95313.94;;;22.15;33.27
8059;BME280;4072;42.668;23.396;2023-05-02T13:14:45;95321.06;;;22.05;34.12
8059;BME280;4072;42.668;23.396;2023-05-02T13:17:14;95322.81;;;22.32;33.21
8059;BME280;4072;42.668;23.396;2023-05-02T13:19:42;95315.94;;;21.91;32.90
8059;BME280;4072;42.668;23.396;2023-05-02T13:22:27;95334.09;;;21.75;33.50
8059;BME280;4072;42.668;23.396;2023-05-02T13:24:55;95332.06;;;21.81;33.45
8059;BME280;4072;42.668;23.396;2023-05-02T13:27:26;95324.50;;;22.11;33.29
8059;BME280;4072;42.668;23.396;2023-05-02T13:29:54;95317.25;;;21.84;33.12